createdAt,value
2023-04-03T00:02:57.332Z,100098.72
2023-04-03T00:06:00.708Z,100103.06
2023-04-03T00:09:03.820Z,100105.66
2023-04-03T00:12:06.637Z,100101.56
2023-04-03T00:15:09.969Z,100108.22
2023-04-03T00:18:12.729Z,100103.88
2023-04-03T00:21:16.716Z,100094.94
2023-04-03T00:24:19.442Z,100113.19
2023-04-03T00:27:22.252Z,100095.72
2023-04-03T00:30:25.444Z,100098.97
2023-04-03T00:33:28.337Z,100100.72
2023-04-03T00:36:31.533Z,100114.28
2023-04-03T00:39:34.331Z,100114.13
2023-04-03T00:42:38.602Z,100119.69
2023-04-03T00:45:44.417Z,100118.72
2023-04-03T00:48:49.145Z,100115.63
2023-04-03T00:51:52.927Z,100115.09
2023-04-03T00:55:00.851Z,100112.25
2023-04-03T00:58:04.342Z,100121.72
2023-04-03T01:01:11.476Z,100120.91
2023-04-03T01:04:35.277Z,100145.31
2023-04-03T01:07:38.831Z,100131.91
2023-04-03T01:10:42.349Z,100134.59
2023-04-03T01:13:45.656Z,100135.97
2023-04-03T01:16:55.744Z,100132.72
2023-04-03T01:20:22.495Z,100131.38
2023-04-03T01:23:47.365Z,100125.28
2023-04-03T01:26:51.476Z,100148.94
2023-04-03T01:29:54.669Z,100137.59
2023-04-03T01:32:58.285Z,100157.47
2023-04-03T01:36:01.264Z,100135.16
2023-04-03T01:39:04.957Z,100137.31
2023-04-03T01:42:08.877Z,100144.22
2023-04-03T01:45:15.932Z,100143.13
2023-04-03T01:48:18.859Z,100134.50
2023-04-03T01:51:21.599Z,100139.75
2023-04-03T01:54:24.384Z,100141.81
2023-04-03T01:57:27.199Z,100137.72
2023-04-03T02:00:30.865Z,100143.00
2023-04-03T02:03:34.298Z,100138.94
2023-04-03T02:06:37.170Z,100151.41
2023-04-03T02:09:40.021Z,100141.78
2023-04-03T02:12:43.179Z,100150.31
2023-04-03T02:15:46.544Z,100146.00
2023-04-03T02:18:53.010Z,100143.97
2023-04-03T02:21:56.112Z,100143.41
2023-04-03T02:24:59.004Z,100142.19
2023-04-03T02:28:01.913Z,100140.16
2023-04-03T02:31:05.906Z,100155.06
2023-04-03T02:34:08.805Z,100147.06
2023-04-03T02:37:12.728Z,100154.09
2023-04-03T02:40:15.703Z,100153.56
2023-04-03T02:43:19.559Z,100151.53
2023-04-03T02:46:22.400Z,100149.09
2023-04-03T02:49:25.582Z,100151.94
2023-04-03T02:52:28.378Z,100155.88
2023-04-03T02:55:34.116Z,100142.47
2023-04-03T02:58:36.877Z,100136.09
2023-04-03T03:01:40.861Z,100159.25
2023-04-03T03:04:44.041Z,100170.09
2023-04-03T03:07:46.754Z,100136.09
2023-04-03T03:10:50.358Z,100123.94
2023-04-03T03:13:53.240Z,100139.06
2023-04-03T03:16:55.984Z,100157.88
2023-04-03T03:19:58.752Z,100175.06
2023-04-03T03:23:01.541Z,100166.66
2023-04-03T03:26:07.284Z,100172.06
2023-04-03T03:29:10.916Z,100194.13
2023-04-03T03:32:14.129Z,100171.78
2023-04-03T03:35:16.990Z,100168.66
2023-04-03T03:38:20.898Z,100175.25
2023-04-03T03:41:24.151Z,100172.00
2023-04-03T03:44:27.077Z,100170.22
2023-04-03T03:47:30.071Z,100174.16
2023-04-03T03:50:33.741Z,100193.50
2023-04-03T03:53:37.324Z,100180.91
2023-04-03T03:56:43.100Z,100182.91
2023-04-03T03:59:46.167Z,100176.44
2023-04-03T04:02:49.306Z,100207.00
2023-04-03T04:05:55.909Z,100182.63
2023-04-03T04:08:59.020Z,100196.03
2023-04-03T04:12:01.864Z,100180.63
2023-04-03T04:15:07.943Z,100182.63
2023-04-03T04:18:10.833Z,100191.31
2023-04-03T04:21:14.075Z,100203.34
2023-04-03T04:24:17.975Z,100203.25
2023-04-03T04:27:21.255Z,100225.78
2023-04-03T04:30:24.290Z,100222.41
2023-04-03T04:33:27.802Z,100228.19
2023-04-03T04:36:32.160Z,100225.50
2023-04-03T04:39:35.818Z,100234.69
2023-04-03T04:42:39.110Z,100240.75
2023-04-03T04:45:43.021Z,100236.53
2023-04-03T04:48:47.031Z,100238.97
2023-04-03T04:51:52.352Z,100248.44
2023-04-03T04:54:59.523Z,100253.59
2023-04-03T04:58:02.760Z,100252.75
2023-04-03T05:01:08.969Z,100250.38
2023-04-03T05:04:16.410Z,100252.09
2023-04-03T05:07:21.206Z,100255.91
2023-04-03T05:10:24.143Z,100251.34
2023-04-03T05:13:26.981Z,100257.09
2023-04-03T05:16:30.782Z,100265.91
2023-04-03T05:19:34.132Z,100262.28
2023-04-03T05:22:38.498Z,100263.41
2023-04-03T05:25:46.353Z,100259.53
2023-04-03T05:28:50.354Z,100256.50
2023-04-03T05:31:54.226Z,100262.09
2023-04-03T05:35:01.303Z,100270.56
2023-04-03T05:38:06.608Z,100277.88
2023-04-03T05:41:09.932Z,100275.84
2023-04-03T05:44:13.797Z,100275.94
2023-04-03T05:47:20.042Z,100275.25
2023-04-03T05:50:23.808Z,100276.88
2023-04-03T05:53:30.666Z,100278.16
2023-04-03T05:56:36.928Z,100285.84
2023-04-03T05:59:39.946Z,100283.47
2023-04-03T06:02:44.091Z,100290.47
2023-04-03T06:05:53.505Z,100287.22
2023-04-03T06:08:56.277Z,100312.84
2023-04-03T06:11:59.915Z,100294.00
2023-04-03T06:15:04.762Z,100308.59
2023-04-03T06:18:08.106Z,100303.59
2023-04-03T06:21:11.703Z,100294.66
2023-04-03T06:24:18.825Z,100293.19
2023-04-03T06:27:21.909Z,100288.66
2023-04-03T06:30:24.808Z,100282.50
2023-04-03T06:33:28.714Z,100280.47
2023-04-03T06:36:32.222Z,100292.56
2023-04-03T06:39:36.045Z,100302.84
2023-04-03T06:42:38.812Z,100306.16
2023-04-03T06:45:48.476Z,100296.69
2023-04-03T06:48:52.350Z,100306.84
2023-04-03T06:51:55.115Z,100302.94
2023-04-03T06:55:00.590Z,100307.69
2023-04-03T06:58:04.981Z,100303.50
2023-04-03T07:01:07.766Z,100311.06
2023-04-03T07:04:10.568Z,100306.59
2023-04-03T07:07:13.438Z,100316.38
2023-04-03T07:10:18.621Z,100322.44
2023-04-03T07:13:21.736Z,100311.22
2023-04-03T07:16:25.370Z,100337.78
2023-04-03T07:19:29.159Z,100298.56
2023-04-03T07:22:32.774Z,100316.19
2023-04-03T07:25:35.748Z,100316.75
2023-04-03T07:28:39.652Z,100315.69
2023-04-03T07:31:42.748Z,100341.66
2023-04-03T07:34:46.009Z,100338.56
2023-04-03T07:37:48.813Z,100341.28
2023-04-03T07:40:53.837Z,100336.97
2023-04-03T07:43:57.738Z,100351.47
2023-04-03T07:47:01.017Z,100351.88
2023-04-03T07:50:03.982Z,100346.63
2023-04-03T07:53:06.950Z,100353.00
2023-04-03T07:56:10.858Z,100343.31
2023-04-03T07:59:13.890Z,100343.72
2023-04-03T08:02:17.075Z,100342.88
2023-04-03T08:05:20.851Z,100343.91
2023-04-03T08:08:24.873Z,100351.50
2023-04-03T08:11:27.937Z,100350.94
2023-04-03T08:14:35.508Z,100355.41
2023-04-03T08:17:38.332Z,100356.16
2023-04-03T08:20:42.008Z,100363.72
2023-04-03T08:23:51.896Z,100375.25
2023-04-03T08:26:54.679Z,100359.75
2023-04-03T08:29:58.136Z,100359.28
2023-04-03T08:33:02.725Z,100369.59
2023-04-03T08:36:08.562Z,100367.72
2023-04-03T08:39:12.530Z,100371.84
2023-04-03T08:42:30.591Z,100347.94
2023-04-03T08:45:39.541Z,100353.84
2023-04-03T08:48:44.800Z,100346.44
2023-04-03T08:51:50.958Z,100349.53
2023-04-03T08:55:01.026Z,100341.84
2023-04-03T08:58:07.480Z,100350.97
2023-04-03T09:01:26.482Z,100350.66
2023-04-03T09:04:33.776Z,100346.09
2023-04-03T09:08:02.330Z,100361.16
2023-04-03T09:11:30.501Z,100363.44
2023-04-03T09:15:00.476Z,100348.53
2023-04-03T09:18:12.206Z,100356.97
2023-04-03T09:21:21.913Z,100355.91
2023-04-03T09:24:25.874Z,100347.72
2023-04-03T09:27:28.800Z,100341.06
2023-04-03T09:30:31.822Z,100338.59
2023-04-03T09:33:36.273Z,100336.75
2023-04-03T09:36:53.704Z,100344.59
2023-04-03T09:39:57.187Z,100344.50
2023-04-03T09:43:21.175Z,100342.13
2023-04-03T09:46:34.866Z,100329.81
2023-04-03T09:49:38.672Z,100323.03
2023-04-03T09:52:45.763Z,100337.19
2023-04-03T09:55:48.582Z,100324.44
2023-04-03T09:59:16.890Z,100322.44
2023-04-03T10:02:32.290Z,100306.59
2023-04-03T10:05:40.876Z,100311.72
2023-04-03T10:08:43.622Z,100317.69
2023-04-03T10:12:06.306Z,100303.16
2023-04-03T10:15:14.130Z,100315.13
2023-04-03T10:21:45.747Z,100303.03
2023-04-03T10:25:04.087Z,100295.25
2023-04-03T10:28:28.190Z,100294.75
2023-04-03T10:31:38.574Z,100297.25
2023-04-03T10:34:51.736Z,100301.88
2023-04-03T10:38:11.332Z,100292.53
2023-04-03T10:41:24.339Z,100294.94
2023-04-03T10:44:42.966Z,100293.28
2023-04-03T10:48:08.751Z,100312.56
2023-04-03T10:51:27.708Z,100301.25
2023-04-03T10:54:38.060Z,100295.75
2023-04-03T10:57:42.154Z,100301.72
2023-04-03T11:00:49.384Z,100299.50
2023-04-03T11:03:58.776Z,100290.69
2023-04-03T11:07:24.466Z,100292.50
2023-04-03T11:10:45.451Z,100286.03
2023-04-03T11:14:02.486Z,100288.94
2023-04-03T11:17:11.370Z,100292.19
2023-04-03T11:20:28.671Z,100281.47
2023-04-03T11:23:49.363Z,100285.66
2023-04-03T11:26:55.003Z,100283.38
2023-04-03T11:29:59.600Z,100276.00
2023-04-03T11:33:20.386Z,100275.81
2023-04-03T11:36:31.491Z,100280.78
2023-04-03T11:39:39.755Z,100258.97
2023-04-03T11:42:47.812Z,100269.34
2023-04-03T11:46:06.656Z,100257.84
2023-04-03T11:49:48.105Z,100254.13
2023-04-03T11:52:51.179Z,100257.53
2023-04-03T11:55:56.527Z,100249.38
2023-04-03T11:59:14.787Z,100256.53
2023-04-03T12:02:51.266Z,100236.63
2023-04-03T12:06:08.342Z,100253.66
2023-04-03T12:09:28.586Z,100245.34
2023-04-03T12:12:35.991Z,100222.72
2023-04-03T12:15:38.905Z,100231.63
2023-04-03T12:18:51.372Z,100239.88
2023-04-03T12:21:59.316Z,100231.44
2023-04-03T12:25:40.721Z,100224.00
2023-04-03T12:28:44.638Z,100230.81
2023-04-03T12:32:07.268Z,100231.75
2023-04-03T12:35:28.262Z,100234.31
2023-04-03T12:38:55.045Z,100232.25
2023-04-03T12:42:39.697Z,100237.47
2023-04-03T12:46:08.962Z,100231.13
2023-04-03T12:49:30.187Z,100235.81
2023-04-03T12:53:00.859Z,100242.81
2023-04-03T12:56:22.730Z,100242.31
2023-04-03T12:59:27.879Z,100218.03
2023-04-03T13:02:34.872Z,100222.69
2023-04-03T13:05:38.261Z,100218.66
2023-04-03T13:08:53.910Z,100203.13
2023-04-03T13:12:10.743Z,100209.91
2023-04-03T13:15:17.436Z,100200.34
2023-04-03T13:18:35.561Z,100209.03
2023-04-03T13:21:38.601Z,100215.53
2023-04-03T13:24:41.534Z,100205.66
2023-04-03T13:27:45.317Z,100203.09
2023-04-03T13:31:16.309Z,100202.13
2023-04-03T13:34:21.442Z,100200.53
2023-04-03T13:37:28.617Z,100195.03
2023-04-03T13:40:41.473Z,100195.81
2023-04-03T13:43:51.985Z,100187.84
2023-04-03T13:46:59.196Z,100190.31
2023-04-03T13:50:19.617Z,100190.47
2023-04-03T13:53:22.728Z,100184.34
2023-04-03T13:56:28.252Z,100182.06
2023-04-03T13:59:35.713Z,100183.53
2023-04-03T14:02:40.678Z,100172.03
2023-04-03T14:05:43.550Z,100185.63
2023-04-03T14:08:47.296Z,100170.91
2023-04-03T14:11:53.528Z,100166.06
2023-04-03T14:14:57.109Z,100163.94
2023-04-03T14:18:03.373Z,100183.06
2023-04-03T14:21:07.391Z,100165.22
2023-04-03T14:24:10.520Z,100166.06
2023-04-03T14:27:22.059Z,100165.03
2023-04-03T14:30:34.332Z,100171.53
2023-04-03T14:33:37.834Z,100169.75
2023-04-03T14:36:42.852Z,100166.97
2023-04-03T14:39:46.577Z,100168.94
2023-04-03T14:42:50.008Z,100175.72
2023-04-03T14:45:53.116Z,100171.50
2023-04-03T14:48:56.095Z,100168.94
2023-04-03T14:51:59.546Z,100179.28
2023-04-03T14:55:05.444Z,100184.44
2023-04-03T14:58:13.577Z,100183.91
2023-04-03T15:01:16.914Z,100186.03
2023-04-03T15:04:21.878Z,100179.38
2023-04-03T15:07:28.009Z,100176.78
2023-04-03T15:10:32.195Z,100176.59
2023-04-03T15:13:34.988Z,100184.53
2023-04-03T15:16:37.811Z,100173.72
2023-04-03T15:19:40.963Z,100173.91
2023-04-03T15:22:44.393Z,100167.22
2023-04-03T15:25:49.636Z,100181.47
2023-04-03T15:28:52.899Z,100171.25
2023-04-03T15:31:56.079Z,100177.06
2023-04-03T15:34:59.083Z,100176.88
2023-04-03T15:38:01.811Z,100169.41
2023-04-03T15:41:05.526Z,100164.84
2023-04-03T15:44:08.305Z,100177.47
2023-04-03T15:47:11.350Z,100173.19
2023-04-03T15:50:14.321Z,100170.63
2023-04-03T15:53:17.043Z,100173.34
2023-04-03T15:56:19.780Z,100181.78
2023-04-03T15:59:23.217Z,100178.84
2023-04-03T16:02:28.524Z,100160.59
2023-04-03T16:05:32.510Z,100155.84
2023-04-03T16:08:37.680Z,100162.09
2023-04-03T16:11:41.246Z,100174.38
2023-04-03T16:14:43.993Z,100190.97
2023-04-03T16:17:46.896Z,100205.41
2023-04-03T16:20:53.727Z,100208.03
2023-04-03T16:23:59.526Z,100221.06
2023-04-03T16:27:02.464Z,100234.06
2023-04-03T16:30:06.216Z,100251.19
2023-04-03T16:33:10.723Z,100261.81
2023-04-03T16:36:13.577Z,100253.69
2023-04-03T16:39:16.321Z,100255.25
2023-04-03T16:42:19.236Z,100251.72
2023-04-03T16:45:22.140Z,100266.16
2023-04-03T16:48:24.886Z,100275.91
2023-04-03T16:51:27.604Z,100268.19
2023-04-03T16:54:31.409Z,100265.19
2023-04-03T16:57:34.557Z,100280.84
2023-04-03T17:00:38.823Z,100279.16
2023-04-03T17:03:41.866Z,100276.44
2023-04-03T17:06:44.618Z,100265.19
2023-04-03T17:09:48.305Z,100272.69
2023-04-03T17:12:51.401Z,100243.00
2023-04-03T17:15:54.095Z,100259.72
2023-04-03T17:18:57.411Z,100262.56
2023-04-03T17:22:00.952Z,100253.81
2023-04-03T17:25:04.433Z,100261.31
2023-04-03T17:28:07.841Z,100263.88
2023-04-03T17:31:10.883Z,100269.34
2023-04-03T17:34:13.856Z,100266.75
2023-04-03T17:37:17.198Z,100287.81
2023-04-03T17:40:20.243Z,100288.78
2023-04-03T17:43:23.118Z,100279.97
2023-04-03T17:46:27.162Z,100288.81
2023-04-03T17:49:29.975Z,100278.47
2023-04-03T17:52:32.966Z,100297.66
2023-04-03T17:55:38.457Z,100281.94
2023-04-03T17:58:42.269Z,100280.75
2023-04-03T18:01:47.677Z,100292.66
2023-04-03T18:04:54.070Z,100279.38
2023-04-03T18:07:58.520Z,100289.69
2023-04-03T18:11:01.942Z,100295.13
2023-04-03T18:14:07.806Z,100293.25
2023-04-03T18:17:11.349Z,100297.22
2023-04-03T18:20:15.329Z,100293.97
2023-04-03T18:23:18.485Z,100288.94
2023-04-03T18:26:26.789Z,100287.19
2023-04-03T18:29:32.137Z,100275.25
2023-04-03T18:32:35.280Z,100285.97
2023-04-03T18:35:38.354Z,100284.19
2023-04-03T18:38:42.593Z,100280.00
2023-04-03T18:41:46.031Z,100271.34
2023-04-03T18:44:53.913Z,100285.72
2023-04-03T18:47:57.485Z,100287.75
2023-04-03T18:51:00.795Z,100280.31
2023-04-03T18:54:04.249Z,100281.94
2023-04-03T18:57:08.363Z,100295.75
2023-04-03T19:00:18.625Z,100292.91
2023-04-03T19:03:21.695Z,100296.44
2023-04-03T19:06:25.223Z,100294.00
2023-04-03T19:09:28.308Z,100301.72
2023-04-03T19:12:31.477Z,100297.09
2023-04-03T19:15:34.555Z,100293.03
2023-04-03T19:18:37.506Z,100292.91
2023-04-03T19:21:41.727Z,100288.94
2023-04-03T19:24:45.257Z,100293.97
2023-04-03T19:27:48.114Z,100304.41
2023-04-03T19:30:51.800Z,100316.06
2023-04-03T19:33:55.451Z,100305.09
2023-04-03T19:36:58.562Z,100310.25
2023-04-03T19:40:01.970Z,100301.06
2023-04-03T19:43:05.093Z,100320.56
2023-04-03T19:46:09.271Z,100301.84
2023-04-03T19:49:12.213Z,100310.91
2023-04-03T19:52:15.206Z,100309.84
2023-04-03T19:55:18.528Z,100306.72
2023-04-03T19:58:21.402Z,100304.31
2023-04-03T20:01:24.906Z,100314.44
2023-04-03T20:04:27.941Z,100311.19
2023-04-03T20:07:31.201Z,100310.53
2023-04-03T20:10:40.519Z,100311.19
2023-04-03T20:13:43.539Z,100309.56
2023-04-03T20:16:47.445Z,100332.63
2023-04-03T20:19:51.149Z,100320.16
2023-04-03T20:22:54.244Z,100316.38
2023-04-03T20:26:09.194Z,100316.63
2023-04-03T20:29:14.819Z,100301.31
2023-04-03T20:32:17.593Z,100302.94
2023-04-03T20:35:22.364Z,100310.94
2023-04-03T20:38:25.500Z,100291.16
2023-04-03T20:41:28.525Z,100320.16
2023-04-03T20:44:32.204Z,100326.47
2023-04-03T20:47:35.386Z,100328.34
2023-04-03T20:50:38.798Z,100328.69
2023-04-03T20:53:42.172Z,100319.91
2023-04-03T20:56:47.314Z,100319.72
2023-04-03T20:59:53.158Z,100321.50
2023-04-03T21:02:57.331Z,100321.88
2023-04-03T21:06:00.604Z,100328.72
2023-04-03T21:09:40.950Z,100339.09
2023-04-03T21:13:21.269Z,100328.78
2023-04-03T21:16:24.697Z,100329.44
2023-04-03T21:19:27.493Z,100339.56
2023-04-03T21:22:30.536Z,100348.59
2023-04-03T21:25:33.300Z,100353.16
2023-04-03T21:28:36.311Z,100347.59
2023-04-03T21:31:51.812Z,100340.41
2023-04-03T21:34:54.577Z,100342.09
2023-04-03T21:37:57.909Z,100354.34
2023-04-03T21:41:01.049Z,100359.38
2023-04-03T21:44:04.421Z,100377.84
2023-04-03T21:47:07.736Z,100361.16
2023-04-03T21:50:10.900Z,100363.41
2023-04-03T21:53:13.691Z,100365.88
2023-04-03T21:56:16.476Z,100374.72
2023-04-03T21:59:19.690Z,100379.06
2023-04-03T22:02:22.534Z,100376.19
2023-04-03T22:05:25.424Z,100376.03
2023-04-03T22:08:29.464Z,100392.81
2023-04-03T22:11:32.788Z,100378.94
2023-04-03T22:14:35.480Z,100391.50
2023-04-03T22:17:38.323Z,100386.00
2023-04-03T22:20:43.775Z,100403.91
2023-04-03T22:23:46.604Z,100394.50
2023-04-03T22:26:49.726Z,100378.28
2023-04-03T22:29:52.464Z,100378.88
2023-04-03T22:32:55.324Z,100396.97
2023-04-03T22:35:58.241Z,100389.97
2023-04-03T22:39:02.843Z,100395.91
2023-04-03T22:42:07.831Z,100391.50
2023-04-03T22:45:11.019Z,100391.59
2023-04-03T22:48:14.752Z,100400.47
2023-04-03T22:51:17.557Z,100393.72
2023-04-03T22:54:20.563Z,100401.03
2023-04-03T22:57:23.299Z,100411.19
2023-04-03T23:00:27.925Z,100415.97
2023-04-03T23:03:30.661Z,100418.28
2023-04-03T23:06:33.456Z,100424.69
2023-04-03T23:09:36.546Z,100425.53
2023-04-03T23:12:42.337Z,100439.16
2023-04-03T23:15:45.303Z,100435.66
2023-04-03T23:18:50.123Z,100432.41
2023-04-03T23:21:53.080Z,100438.78
2023-04-03T23:24:55.853Z,100434.50
2023-04-03T23:27:58.637Z,100430.19
2023-04-03T23:31:03.452Z,100428.69
2023-04-03T23:34:06.531Z,100422.72
2023-04-03T23:37:12.839Z,100418.53
2023-04-03T23:40:15.764Z,100421.31
2023-04-03T23:43:19.147Z,100401.75
2023-04-03T23:46:22.064Z,100409.53
2023-04-03T23:49:25.108Z,100396.38
2023-04-03T23:52:28.647Z,100406.75
2023-04-03T23:55:31.827Z,100393.69
2023-04-03T23:58:35.147Z,100397.88
